sensor_id;sensor_type;location;lat;lon;timestamp;pressure;altitude;pressure_sealevel;temperature;humidity
28448;BME280;15675;52.870;-1.416;2023-06-10T00:02:11;101139.34;;;13.20;100.00
28448;BME280;15675;52.870;-1.416;2023-06-10T00:04:37;101133.25;;;13.24;100.00
28448;BME280;15675;52.870;-1.416;2023-06-10T00:07:05;101135.88;;;13.20;100.00
28448;BME280;15675;52.870;-1.416;2023-06-10T00:09:35;101122.81;;;12.81;100.00
28448;BME280;15675;52.870;-1.416;2023-06-10T00:12:03;101141.03;;;12.78;100.00
28448;BME280;15675;52.870;-1.416;2023-06-10T00:14:29;101132.34;;;12.65;100.00
28448;BME280;15675;52.870;-1.416;2023-06-10T00:16:54;101130.59;;;12.63;100.00
28448;BME280;15675;52.870;-1.416;2023-06-10T00:19:20;101123.69;;;12.82;100.00
28448;BME280;15675;52.870;-1.416;2023-06-10T00:21:51;101128.03;;;12.87;100.00
28448;BME280;15675;52.870;-1.416;2023-06-10T00:24:18;101123.66;;;12.71;100.00
28448;BME280;15675;52.870;-1.416;2023-06-10T00:26:43;101130.63;;;13.00;100.00
28448;BME280;15675;52.870;-1.416;2023-06-10T00:29:09;101119.34;;;12.96;100.00
28448;BME280;15675;52.870;-1.416;2023-06-10T00:31:37;101118.47;;;12.89;100.00
28448;BME280;15675;52.870;-1.416;2023-06-10T00:34:03;101108.06;;;12.80;100.00
28448;BME280;15675;52.870;-1.416;2023-06-10T00:36:29;101117.59;;;12.73;100.00
28448;BME280;15675;52.870;-1.416;2023-06-10T00:38:55;101117.56;;;12.49;100.00
28448;BME280;15675;52.870;-1.416;2023-06-10T00:41:20;101108.00;;;12.46;100.00
28448;BME280;15675;52.870;-1.416;2023-06-10T00:43:46;101112.41;;;12.89;100.00
28448;BME280;15675;52.870;-1.416;2023-06-10T00:46:12;101119.34;;;13.04;100.00
28448;BME280;15675;52.870;-1.416;2023-06-10T00:48:42;101115.88;;;12.85;100.00
28448;BME280;15675;52.870;-1.416;2023-06-10T00:51:09;101108.03;;;12.57;100.00
28448;BME280;15675;52.870;-1.416;2023-06-10T00:53:39;101107.16;;;12.58;100.00
28448;BME280;15675;52.870;-1.416;2023-06-10T00:56:05;101105.44;;;12.62;100.00
28448;BME280;15675;52.870;-1.416;2023-06-10T00:58:31;101104.56;;;12.53;100.00
28448;BME280;15675;52.870;-1.416;2023-06-10T01:00:56;101112.38;;;12.58;100.00
28448;BME280;15675;52.870;-1.416;2023-06-10T01:03:23;101105.44;;;12.63;100.00
28448;BME280;15675;52.870;-1.416;2023-06-10T01:05:55;101103.69;;;12.65;100.00
28448;BME280;15675;52.870;-1.416;2023-06-10T01:08:33;101101.09;;;12.84;100.00
28448;BME280;15675;52.870;-1.416;2023-06-10T01:11:01;101095.88;;;12.60;100.00
28448;BME280;15675;52.870;-1.416;2023-06-10T01:13:30;101097.59;;;12.46;100.00
28448;BME280;15675;52.870;-1.416;2023-06-10T01:15:58;101106.31;;;12.77;100.00
28448;BME280;15675;52.870;-1.416;2023-06-10T01:18:29;101108.00;;;12.48;100.00
28448;BME280;15675;52.870;-1.416;2023-06-10T01:20:56;101103.66;;;12.48;100.00
28448;BME280;15675;52.870;-1.416;2023-06-10T01:23:22;101104.53;;;12.38;100.00
28448;BME280;15675;52.870;-1.416;2023-06-10T01:26:00;101092.38;;;12.51;100.00
28448;BME280;15675;52.870;-1.416;2023-06-10T01:28:36;101096.75;;;12.52;100.00
28448;BME280;15675;52.870;-1.416;2023-06-10T01:31:13;101090.69;;;12.62;100.00
28448;BME280;15675;52.870;-1.416;2023-06-10T01:33:46;101086.34;;;12.69;100.00
28448;BME280;15675;52.870;-1.416;2023-06-10T01:36:13;101089.81;;;12.65;100.00
28448;BME280;15675;52.870;-1.416;2023-06-10T01:38:45;101092.41;;;12.91;100.00
28448;BME280;15675;52.870;-1.416;2023-06-10T01:41:17;101092.41;;;12.89;100.00
28448;BME280;15675;52.870;-1.416;2023-06-10T01:43:44;101093.31;;;12.73;100.00
28448;BME280;15675;52.870;-1.416;2023-06-10T01:46:10;101092.44;;;12.82;100.00
28448;BME280;15675;52.870;-1.416;2023-06-10T01:48:37;101088.09;;;12.76;100.00
28448;BME280;15675;52.870;-1.416;2023-06-10T01:51:03;101089.84;;;12.94;100.00
28448;BME280;15675;52.870;-1.416;2023-06-10T01:53:28;101081.13;;;12.78;100.00
28448;BME280;15675;52.870;-1.416;2023-06-10T01:55:54;101075.06;;;12.87;100.00
28448;BME280;15675;52.870;-1.416;2023-06-10T01:58:19;101075.91;;;12.76;100.00
28448;BME280;15675;52.870;-1.416;2023-06-10T02:00:45;101082.88;;;12.76;100.00
28448;BME280;15675;52.870;-1.416;2023-06-10T02:03:10;101070.72;;;12.80;100.00
28448;BME280;15675;52.870;-1.416;2023-06-10T02:05:36;101069.84;;;12.96;100.00
28448;BME280;15675;52.870;-1.416;2023-06-10T02:08:02;101072.44;;;12.98;100.00
28448;BME280;15675;52.870;-1.416;2023-06-10T02:10:27;101069.84;;;12.82;100.00
28448;BME280;15675;52.870;-1.416;2023-06-10T02:12:53;101065.50;;;12.92;100.00
28448;BME280;15675;52.870;-1.416;2023-06-10T02:15:19;101060.28;;;12.98;100.00
28448;BME280;15675;52.870;-1.416;2023-06-10T02:17:45;101058.56;;;12.99;100.00
28448;BME280;15675;52.870;-1.416;2023-06-10T02:20:11;101056.81;;;12.98;100.00
28448;BME280;15675;52.870;-1.416;2023-06-10T02:22:37;101058.59;;;12.75;100.00
28448;BME280;15675;52.870;-1.416;2023-06-10T02:25:04;101057.69;;;12.95;100.00
28448;BME280;15675;52.870;-1.416;2023-06-10T02:27:30;101066.38;;;12.85;100.00
28448;BME280;15675;52.870;-1.416;2023-06-10T02:29:56;101070.72;;;12.72;100.00
28448;BME280;15675;52.870;-1.416;2023-06-10T02:32:22;101054.19;;;12.48;100.00
28448;BME280;15675;52.870;-1.416;2023-06-10T02:34:48;101061.16;;;12.54;100.00
28448;BME280;15675;52.870;-1.416;2023-06-10T02:37:16;101061.94;;;12.09;100.00
28448;BME280;15675;52.870;-1.416;2023-06-10T02:39:42;101058.47;;;12.11;100.00
28448;BME280;15675;52.870;-1.416;2023-06-10T02:42:08;101061.97;;;12.30;100.00
28448;BME280;15675;52.870;-1.416;2023-06-10T02:44:33;101065.50;;;12.50;100.00
28448;BME280;15675;52.870;-1.416;2023-06-10T02:46:59;101052.47;;;12.41;100.00
28448;BME280;15675;52.870;-1.416;2023-06-10T02:49:25;101057.66;;;12.41;100.00
28448;BME280;15675;52.870;-1.416;2023-06-10T02:51:53;101053.34;;;12.63;100.00
28448;BME280;15675;52.870;-1.416;2023-06-10T02:54:25;101059.41;;;12.39;100.00
28448;BME280;15675;52.870;-1.416;2023-06-10T02:56:52;101050.75;;;12.41;100.00
28448;BME280;15675;52.870;-1.416;2023-06-10T02:59:18;101061.97;;;12.19;100.00
28448;BME280;15675;52.870;-1.416;2023-06-10T03:01:44;101055.03;;;12.21;100.00
28448;BME280;15675;52.870;-1.416;2023-06-10T03:04:09;101049.00;;;12.34;100.00
28448;BME280;15675;52.870;-1.416;2023-06-10T03:06:35;101050.72;;;12.32;100.00
28448;BME280;15675;52.870;-1.416;2023-06-10T03:09:02;101049.84;;;12.42;100.00
28448;BME280;15675;52.870;-1.416;2023-06-10T03:11:29;101039.41;;;12.24;100.00
28448;BME280;15675;52.870;-1.416;2023-06-10T03:13:56;101053.31;;;12.35;100.00
28448;BME280;15675;52.870;-1.416;2023-06-10T03:16:22;101047.28;;;12.47;100.00
28448;BME280;15675;52.870;-1.416;2023-06-10T03:18:48;101058.56;;;12.40;100.00
28448;BME280;15675;52.870;-1.416;2023-06-10T03:21:14;101058.53;;;12.26;100.00
28448;BME280;15675;52.870;-1.416;2023-06-10T03:23:41;101057.69;;;12.46;100.00
28448;BME280;15675;52.870;-1.416;2023-06-10T03:26:06;101062.88;;;12.32;100.00
28448;BME280;15675;52.870;-1.416;2023-06-10T03:28:32;101048.09;;;12.38;100.00
28448;BME280;15675;52.870;-1.416;2023-06-10T03:30:58;101052.47;;;12.52;100.00
28448;BME280;15675;52.870;-1.416;2023-06-10T03:33:23;101051.59;;;12.48;100.00
28448;BME280;15675;52.870;-1.416;2023-06-10T03:35:50;101054.19;;;12.39;100.00
28448;BME280;15675;52.870;-1.416;2023-06-10T03:38:15;101044.66;;;12.27;100.00
28448;BME280;15675;52.870;-1.416;2023-06-10T03:40:41;101047.25;;;12.39;100.00
28448;BME280;15675;52.870;-1.416;2023-06-10T03:43:07;101053.31;;;12.21;100.00
28448;BME280;15675;52.870;-1.416;2023-06-10T03:45:33;101054.16;;;12.23;100.00
28448;BME280;15675;52.870;-1.416;2023-06-10T03:47:58;101038.56;;;12.48;100.00
28448;BME280;15675;52.870;-1.416;2023-06-10T03:50:24;101053.31;;;12.37;100.00
28448;BME280;15675;52.870;-1.416;2023-06-10T03:52:50;101045.53;;;12.41;100.00
28448;BME280;15675;52.870;-1.416;2023-06-10T03:55:16;101046.41;;;12.51;100.00
28448;BME280;15675;52.870;-1.416;2023-06-10T03:57:43;101044.66;;;12.39;100.00
28448;BME280;15675;52.870;-1.416;2023-06-10T04:00:09;101043.81;;;12.56;100.00
28448;BME280;15675;52.870;-1.416;2023-06-10T04:02:41;101037.69;;;12.32;100.00
28448;BME280;15675;52.870;-1.416;2023-06-10T04:05:11;101040.28;;;12.38;100.00
28448;BME280;15675;52.870;-1.416;2023-06-10T04:07:37;101049.00;;;12.54;100.00
28448;BME280;15675;52.870;-1.416;2023-06-10T04:10:05;101053.34;;;12.71;100.00
28448;BME280;15675;52.870;-1.416;2023-06-10T04:12:31;101046.41;;;12.59;100.00
28448;BME280;15675;52.870;-1.416;2023-06-10T04:14:56;101051.59;;;12.47;100.00
28448;BME280;15675;52.870;-1.416;2023-06-10T04:17:22;101041.19;;;12.68;100.00
28448;BME280;15675;52.870;-1.416;2023-06-10T04:19:48;101041.22;;;12.54;100.00
28448;BME280;15675;52.870;-1.416;2023-06-10T04:22:13;101037.72;;;12.48;100.00
28448;BME280;15675;52.870;-1.416;2023-06-10T04:24:39;101041.19;;;12.62;100.00
28448;BME280;15675;52.870;-1.416;2023-06-10T04:27:04;101036.84;;;12.61;100.00
28448;BME280;15675;52.870;-1.416;2023-06-10T04:29:30;101037.75;;;12.77;100.00
28448;BME280;15675;52.870;-1.416;2023-06-10T04:31:56;101035.13;;;12.66;100.00
28448;BME280;15675;52.870;-1.416;2023-06-10T04:34:21;101038.56;;;12.48;100.00
28448;BME280;15675;52.870;-1.416;2023-06-10T04:36:46;101027.31;;;12.69;100.00
28448;BME280;15675;52.870;-1.416;2023-06-10T04:39:13;101032.53;;;12.78;100.00
28448;BME280;15675;52.870;-1.416;2023-06-10T04:41:38;101034.25;;;12.67;100.00
28448;BME280;15675;52.870;-1.416;2023-06-10T04:44:04;101041.19;;;12.99;100.00
28448;BME280;15675;52.870;-1.416;2023-06-10T04:46:30;101031.63;;;12.63;100.00
28448;BME280;15675;52.870;-1.416;2023-06-10T04:48:57;101031.66;;;12.84;100.00
28448;BME280;15675;52.870;-1.416;2023-06-10T04:51:22;101036.84;;;12.76;100.00
28448;BME280;15675;52.870;-1.416;2023-06-10T04:53:48;101033.38;;;12.85;100.00
28448;BME280;15675;52.870;-1.416;2023-06-10T04:56:13;101029.00;;;13.09;100.00
28448;BME280;15675;52.870;-1.416;2023-06-10T04:58:40;101026.38;;;13.15;100.00
28448;BME280;15675;52.870;-1.416;2023-06-10T05:01:06;101015.16;;;12.79;100.00
28448;BME280;15675;52.870;-1.416;2023-06-10T05:03:31;101015.16;;;12.65;100.00
28448;BME280;15675;52.870;-1.416;2023-06-10T05:05:57;101015.16;;;12.81;100.00
28448;BME280;15675;52.870;-1.416;2023-06-10T05:08:22;101024.69;;;12.95;100.00
28448;BME280;15675;52.870;-1.416;2023-06-10T05:10:48;101022.94;;;13.01;100.00
28448;BME280;15675;52.870;-1.416;2023-06-10T05:13:16;101025.56;;;12.91;100.00
28448;BME280;15675;52.870;-1.416;2023-06-10T05:15:42;101021.22;;;12.73;100.00
28448;BME280;15675;52.870;-1.416;2023-06-10T05:18:10;101025.56;;;12.96;100.00
28448;BME280;15675;52.870;-1.416;2023-06-10T05:20:38;101029.00;;;13.09;100.00
28448;BME280;15675;52.870;-1.416;2023-06-10T05:23:03;101028.94;;;13.32;100.00
28448;BME280;15675;52.870;-1.416;2023-06-10T05:25:32;101025.50;;;13.18;100.00
28448;BME280;15675;52.870;-1.416;2023-06-10T05:27:58;101023.78;;;13.20;100.00
28448;BME280;15675;52.870;-1.416;2023-06-10T05:30:24;101029.88;;;13.06;100.00
28448;BME280;15675;52.870;-1.416;2023-06-10T05:32:50;101016.88;;;12.88;100.00
28448;BME280;15675;52.870;-1.416;2023-06-10T05:35:16;101023.81;;;12.95;100.00
28448;BME280;15675;52.870;-1.416;2023-06-10T05:37:42;101032.44;;;13.25;100.00
28448;BME280;15675;52.870;-1.416;2023-06-10T05:40:09;101033.31;;;13.33;100.00
28448;BME280;15675;52.870;-1.416;2023-06-10T05:42:34;101032.41;;;13.51;100.00
28448;BME280;15675;52.870;-1.416;2023-06-10T05:45:00;101037.56;;;13.67;100.00
28448;BME280;15675;52.870;-1.416;2023-06-10T05:47:25;101037.50;;;13.80;100.00
28448;BME280;15675;52.870;-1.416;2023-06-10T05:49:51;101041.88;;;13.72;100.00
28448;BME280;15675;52.870;-1.416;2023-06-10T05:52:17;101037.66;;;13.25;100.00
28448;BME280;15675;52.870;-1.416;2023-06-10T05:54:43;101041.13;;;13.33;100.00
28448;BME280;15675;52.870;-1.416;2023-06-10T05:57:09;101039.38;;;13.32;100.00
28448;BME280;15675;52.870;-1.416;2023-06-10T05:59:35;101052.47;;;13.37;100.00
28448;BME280;15675;52.870;-1.416;2023-06-10T06:02:01;101047.22;;;13.30;100.00
28448;BME280;15675;52.870;-1.416;2023-06-10T06:04:26;101045.47;;;13.26;100.00
28448;BME280;15675;52.870;-1.416;2023-06-10T06:06:52;101048.09;;;13.31;100.00
28448;BME280;15675;52.870;-1.416;2023-06-10T06:09:17;101042.91;;;13.17;100.00
28448;BME280;15675;52.870;-1.416;2023-06-10T06:11:43;101046.34;;;13.44;100.00
28448;BME280;15675;52.870;-1.416;2023-06-10T06:14:09;101044.63;;;13.12;100.00
28448;BME280;15675;52.870;-1.416;2023-06-10T06:16:34;101041.97;;;13.49;100.00
28448;BME280;15675;52.870;-1.416;2023-06-10T06:19:00;101050.69;;;13.43;100.00
28448;BME280;15675;52.870;-1.416;2023-06-10T06:21:25;101049.78;;;13.60;100.00
28448;BME280;15675;52.870;-1.416;2023-06-10T06:23:51;101048.06;;;13.51;100.00
28448;BME280;15675;52.870;-1.416;2023-06-10T06:26:17;101052.44;;;13.35;100.00
28448;BME280;15675;52.870;-1.416;2023-06-10T06:28:42;101037.63;;;13.46;100.00
28448;BME280;15675;52.870;-1.416;2023-06-10T06:31:08;101044.59;;;13.44;100.00
28448;BME280;15675;52.870;-1.416;2023-06-10T06:33:34;101042.84;;;13.50;100.00
28448;BME280;15675;52.870;-1.416;2023-06-10T06:35:59;101041.06;;;13.61;100.00
28448;BME280;15675;52.870;-1.416;2023-06-10T06:38:26;101040.97;;;13.79;100.00
28448;BME280;15675;52.870;-1.416;2023-06-10T06:40:52;101047.09;;;13.72;100.00
28448;BME280;15675;52.870;-1.416;2023-06-10T06:43:17;101046.28;;;13.62;100.00
28448;BME280;15675;52.870;-1.416;2023-06-10T06:45:44;101041.78;;;13.95;100.00
28448;BME280;15675;52.870;-1.416;2023-06-10T06:48:11;101036.47;;;14.12;100.00
28448;BME280;15675;52.870;-1.416;2023-06-10T06:50:36;101036.66;;;13.80;100.00
28448;BME280;15675;52.870;-1.416;2023-06-10T06:53:02;101027.09;;;13.77;100.00
28448;BME280;15675;52.870;-1.416;2023-06-10T06:55:28;101026.25;;;13.68;100.00
28448;BME280;15675;52.870;-1.416;2023-06-10T06:57:54;101039.19;;;13.97;100.00
28448;BME280;15675;52.870;-1.416;2023-06-10T07:00:20;101027.03;;;13.85;100.00
28448;BME280;15675;52.870;-1.416;2023-06-10T07:02:45;101039.03;;;14.22;100.00
28448;BME280;15675;52.870;-1.416;2023-06-10T07:05:10;101040.00;;;14.05;100.00
28448;BME280;15675;52.870;-1.416;2023-06-10T07:07:36;101030.22;;;14.38;100.00
28448;BME280;15675;52.870;-1.416;2023-06-10T07:10:02;101019.00;;;14.27;100.00
28448;BME280;15675;52.870;-1.416;2023-06-10T07:12:27;101027.50;;;14.55;100.00
28448;BME280;15675;52.870;-1.416;2023-06-10T07:14:53;101019.59;;;14.63;100.00
28448;BME280;15675;52.870;-1.416;2023-06-10T07:17:18;101029.06;;;14.76;100.00
28448;BME280;15675;52.870;-1.416;2023-06-10T07:19:45;101028.72;;;15.12;100.00
28448;BME280;15675;52.870;-1.416;2023-06-10T07:22:10;101019.91;;;15.24;100.00
28448;BME280;15675;52.870;-1.416;2023-06-10T07:24:36;101027.78;;;15.21;100.00
28448;BME280;15675;52.870;-1.416;2023-06-10T07:27:01;101021.03;;;15.76;100.00
28448;BME280;15675;52.870;-1.416;2023-06-10T07:29:27;101015.41;;;16.07;100.00
28448;BME280;15675;52.870;-1.416;2023-06-10T07:31:53;101018.63;;;16.26;100.00
28448;BME280;15675;52.870;-1.416;2023-06-10T07:34:18;101018.28;;;16.47;100.00
28448;BME280;15675;52.870;-1.416;2023-06-10T07:36:44;101014.88;;;16.42;100.00
28448;BME280;15675;52.870;-1.416;2023-06-10T07:39:10;101014.25;;;16.79;100.00
28448;BME280;15675;52.870;-1.416;2023-06-10T07:41:36;101016.56;;;16.46;100.00
28448;BME280;15675;52.870;-1.416;2023-06-10T07:44:02;101004.91;;;16.64;100.00
28448;BME280;15675;52.870;-1.416;2023-06-10T07:46:28;101007.81;;;16.46;100.00
28448;BME280;15675;52.870;-1.416;2023-06-10T07:48:54;101011.44;;;16.91;100.00
28448;BME280;15675;52.870;-1.416;2023-06-10T07:51:20;101003.66;;;16.85;100.00
28448;BME280;15675;52.870;-1.416;2023-06-10T07:53:45;101001.72;;;16.98;100.00
28448;BME280;15675;52.870;-1.416;2023-06-10T07:56:11;101006.97;;;16.98;100.00
28448;BME280;15675;52.870;-1.416;2023-06-10T07:58:36;101000.69;;;16.55;100.00
28448;BME280;15675;52.870;-1.416;2023-06-10T08:01:02;100995.97;;;16.76;100.00
28448;BME280;15675;52.870;-1.416;2023-06-10T08:03:27;101000.06;;;16.93;100.00
28448;BME280;15675;52.870;-1.416;2023-06-10T08:05:53;101002.59;;;16.97;100.00
28448;BME280;15675;52.870;-1.416;2023-06-10T08:08:18;101007.53;;;17.14;100.00
28448;BME280;15675;52.870;-1.416;2023-06-10T08:10:44;100996.44;;;17.00;100.00
28448;BME280;15675;52.870;-1.416;2023-06-10T08:13:10;101007.13;;;17.34;100.00
28448;BME280;15675;52.870;-1.416;2023-06-10T08:15:35;100995.59;;;17.45;100.00
28448;BME280;15675;52.870;-1.416;2023-06-10T08:18:01;100997.41;;;17.41;100.00
28448;BME280;15675;52.870;-1.416;2023-06-10T08:20:26;100993.16;;;17.34;100.00
28448;BME280;15675;52.870;-1.416;2023-06-10T08:22:52;100999.59;;;17.61;100.00
28448;BME280;15675;52.870;-1.416;2023-06-10T08:25:18;100998.88;;;17.97;100.00
28448;BME280;15675;52.870;-1.416;2023-06-10T08:27:43;100999.00;;;17.48;100.00
28448;BME280;15675;52.870;-1.416;2023-06-10T08:30:09;100998.50;;;17.73;100.00
28448;BME280;15675;52.870;-1.416;2023-06-10T08:32:36;101001.81;;;17.39;100.00
28448;BME280;15675;52.870;-1.416;2023-06-10T08:35:02;100992.50;;;17.66;100.00
28448;BME280;15675;52.870;-1.416;2023-06-10T08:37:28;100994.81;;;17.82;100.00
28448;BME280;15675;52.870;-1.416;2023-06-10T08:39:54;100996.88;;;17.66;100.00
28448;BME280;15675;52.870;-1.416;2023-06-10T08:42:24;100989.56;;;17.82;100.00
28448;BME280;15675;52.870;-1.416;2023-06-10T08:44:56;101001.41;;;17.59;100.00
28448;BME280;15675;52.870;-1.416;2023-06-10T08:47:24;100998.75;;;18.03;100.00
28448;BME280;15675;52.870;-1.416;2023-06-10T08:49:50;100999.09;;;18.25;100.00
28448;BME280;15675;52.870;-1.416;2023-06-10T08:52:19;100989.50;;;18.22;100.00
28448;BME280;15675;52.870;-1.416;2023-06-10T08:54:56;100991.28;;;18.58;100.00
28448;BME280;15675;52.870;-1.416;2023-06-10T08:57:22;100987.44;;;19.06;100.00
28448;BME280;15675;52.870;-1.416;2023-06-10T08:59:48;100993.03;;;19.25;100.00
28448;BME280;15675;52.870;-1.416;2023-06-10T09:02:14;100992.38;;;18.84;100.00
28448;BME280;15675;52.870;-1.416;2023-06-10T09:04:44;100986.75;;;18.65;100.00
28448;BME280;15675;52.870;-1.416;2023-06-10T09:07:12;100984.56;;;18.46;100.00
28448;BME280;15675;52.870;-1.416;2023-06-10T09:09:42;100981.19;;;18.77;100.00
28448;BME280;15675;52.870;-1.416;2023-06-10T09:12:08;100988.16;;;19.11;99.82
28448;BME280;15675;52.870;-1.416;2023-06-10T09:14:33;100978.91;;;18.97;98.27
28448;BME280;15675;52.870;-1.416;2023-06-10T09:16:59;100984.16;;;19.29;100.00
28448;BME280;15675;52.870;-1.416;2023-06-10T09:19:28;100976.91;;;19.37;97.27
28448;BME280;15675;52.870;-1.416;2023-06-10T09:21:54;100979.06;;;19.54;96.61
28448;BME280;15675;52.870;-1.416;2023-06-10T09:24:22;100973.00;;;19.51;96.39
28448;BME280;15675;52.870;-1.416;2023-06-10T09:26:47;100975.81;;;19.74;97.64
28448;BME280;15675;52.870;-1.416;2023-06-10T09:29:13;100963.81;;;19.95;91.11
28448;BME280;15675;52.870;-1.416;2023-06-10T09:31:40;100971.81;;;19.61;92.26
28448;BME280;15675;52.870;-1.416;2023-06-10T09:34:13;100961.84;;;19.42;92.63
28448;BME280;15675;52.870;-1.416;2023-06-10T09:36:39;100964.75;;;19.93;92.46
28448;BME280;15675;52.870;-1.416;2023-06-10T09:39:13;100974.31;;;20.24;93.43
28448;BME280;15675;52.870;-1.416;2023-06-10T09:41:41;100974.66;;;20.40;92.30
28448;BME280;15675;52.870;-1.416;2023-06-10T09:44:17;100976.38;;;20.14;90.25
28448;BME280;15675;52.870;-1.416;2023-06-10T09:46:48;100972.59;;;20.49;92.28
28448;BME280;15675;52.870;-1.416;2023-06-10T09:49:13;100971.59;;;20.52;87.78
28448;BME280;15675;52.870;-1.416;2023-06-10T09:51:53;100963.84;;;20.74;86.75
28448;BME280;15675;52.870;-1.416;2023-06-10T09:54:19;100975.44;;;20.95;89.17
28448;BME280;15675;52.870;-1.416;2023-06-10T09:56:50;100967.38;;;21.24;88.90
28448;BME280;15675;52.870;-1.416;2023-06-10T09:59:28;100958.38;;;21.53;86.25
28448;BME280;15675;52.870;-1.416;2023-06-10T10:01:57;100964.16;;;21.39;84.66
28448;BME280;15675;52.870;-1.416;2023-06-10T10:04:26;100970.03;;;21.24;81.39
28448;BME280;15675;52.870;-1.416;2023-06-10T10:06:52;100969.47;;;21.37;81.40
28448;BME280;15675;52.870;-1.416;2023-06-10T10:09:18;100965.44;;;21.52;80.92
28448;BME280;15675;52.870;-1.416;2023-06-10T10:11:44;100958.16;;;21.81;80.59
28448;BME280;15675;52.870;-1.416;2023-06-10T10:14:11;100965.84;;;21.87;81.69
28448;BME280;15675;52.870;-1.416;2023-06-10T10:16:41;100959.44;;;21.93;79.31
28448;BME280;15675;52.870;-1.416;2023-06-10T10:19:16;100966.25;;;21.54;80.36
28448;BME280;15675;52.870;-1.416;2023-06-10T10:21:51;100946.59;;;22.06;81.06
28448;BME280;15675;52.870;-1.416;2023-06-10T10:24:21;100963.94;;;22.13;81.60
28448;BME280;15675;52.870;-1.416;2023-06-10T10:26:48;100949.16;;;22.52;77.63
28448;BME280;15675;52.870;-1.416;2023-06-10T10:31:54;100958.09;;;22.49;79.20
28448;BME280;15675;52.870;-1.416;2023-06-10T10:34:26;100959.88;;;22.69;79.40
28448;BME280;15675;52.870;-1.416;2023-06-10T10:36:55;100958.56;;;22.59;77.19
28448;BME280;15675;52.870;-1.416;2023-06-10T10:39:22;100957.28;;;22.88;75.63
28448;BME280;15675;52.870;-1.416;2023-06-10T10:41:49;100966.66;;;22.54;75.63
28448;BME280;15675;52.870;-1.416;2023-06-10T10:44:16;100953.66;;;22.50;75.51
28448;BME280;15675;52.870;-1.416;2023-06-10T10:46:43;100959.41;;;22.60;76.50
28448;BME280;15675;52.870;-1.416;2023-06-10T10:49:11;100958.34;;;22.64;75.04
28448;BME280;15675;52.870;-1.416;2023-06-10T10:51:37;100961.59;;;22.70;77.53
28448;BME280;15675;52.870;-1.416;2023-06-10T10:54:12;100957.59;;;22.60;76.64
28448;BME280;15675;52.870;-1.416;2023-06-10T10:56:39;100946.72;;;22.68;77.29
28448;BME280;15675;52.870;-1.416;2023-06-10T10:59:05;100952.63;;;23.14;79.16
28448;BME280;15675;52.870;-1.416;2023-06-10T11:01:42;100957.06;;;23.14;76.53
28448;BME280;15675;52.870;-1.416;2023-06-10T11:04:10;100945.00;;;23.65;78.01
28448;BME280;15675;52.870;-1.416;2023-06-10T11:06:36;100951.88;;;23.69;76.22
28448;BME280;15675;52.870;-1.416;2023-06-10T11:09:27;100944.88;;;23.87;73.31
28448;BME280;15675;52.870;-1.416;2023-06-10T11:11:57;100932.72;;;24.01;74.83
28448;BME280;15675;52.870;-1.416;2023-06-10T11:14:29;100945.72;;;23.69;72.57
28448;BME280;15675;52.870;-1.416;2023-06-10T11:16:58;100926.47;;;23.83;73.24
28448;BME280;15675;52.870;-1.416;2023-06-10T11:19:37;100928.19;;;23.66;72.60
28448;BME280;15675;52.870;-1.416;2023-06-10T11:22:07;100921.00;;;23.87;69.59
28448;BME280;15675;52.870;-1.416;2023-06-10T11:24:33;100919.72;;;24.13;72.45
28448;BME280;15675;52.870;-1.416;2023-06-10T11:27:21;100913.09;;;24.05;70.88
28448;BME280;15675;52.870;-1.416;2023-06-10T11:32:34;100911.69;;;24.15;71.00
28448;BME280;15675;52.870;-1.416;2023-06-10T11:35:02;100918.09;;;24.46;72.36
28448;BME280;15675;52.870;-1.416;2023-06-10T11:37:28;100917.63;;;24.38;69.68
28448;BME280;15675;52.870;-1.416;2023-06-10T11:39:58;100917.41;;;24.60;71.02
28448;BME280;15675;52.870;-1.416;2023-06-10T11:42:24;100916.13;;;24.32;73.06
28448;BME280;15675;52.870;-1.416;2023-06-10T11:44:50;100909.13;;;24.49;71.76
28448;BME280;15675;52.870;-1.416;2023-06-10T11:47:17;100914.69;;;24.61;70.15
28448;BME280;15675;52.870;-1.416;2023-06-10T11:49:43;100901.00;;;24.52;69.98
28448;BME280;15675;52.870;-1.416;2023-06-10T11:52:09;100916.06;;;25.02;70.31
28448;BME280;15675;52.870;-1.416;2023-06-10T11:54:36;100908.63;;;25.25;69.46
28448;BME280;15675;52.870;-1.416;2023-06-10T11:57:01;100899.16;;;25.37;68.55
28448;BME280;15675;52.870;-1.416;2023-06-10T11:59:29;100906.38;;;25.35;69.93
28448;BME280;15675;52.870;-1.416;2023-06-10T12:01:55;100904.59;;;25.18;68.23
28448;BME280;15675;52.870;-1.416;2023-06-10T12:04:21;100907.03;;;25.38;69.16
28448;BME280;15675;52.870;-1.416;2023-06-10T12:06:51;100906.97;;;25.40;68.86
28448;BME280;15675;52.870;-1.416;2023-06-10T12:09:22;100899.03;;;25.22;66.82
28448;BME280;15675;52.870;-1.416;2023-06-10T12:11:50;100895.34;;;25.25;67.98
28448;BME280;15675;52.870;-1.416;2023-06-10T12:14:45;100888.63;;;25.67;68.41
28448;BME280;15675;52.870;-1.416;2023-06-10T12:17:02;100882.91;;;25.89;66.28
28448;BME280;15675;52.870;-1.416;2023-06-10T12:19:28;100884.06;;;25.99;64.55
28448;BME280;15675;52.870;-1.416;2023-06-10T12:21:53;100876.69;;;25.74;64.47
28448;BME280;15675;52.870;-1.416;2023-06-10T12:24:19;100883.19;;;25.84;64.11
28448;BME280;15675;52.870;-1.416;2023-06-10T12:26:44;100878.84;;;25.98;64.15
28448;BME280;15675;52.870;-1.416;2023-06-10T12:29:22;100879.44;;;26.33;65.54
28448;BME280;15675;52.870;-1.416;2023-06-10T12:34:18;100869.50;;;26.37;63.32
28448;BME280;15675;52.870;-1.416;2023-06-10T12:36:48;100858.44;;;26.74;65.55
28448;BME280;15675;52.870;-1.416;2023-06-10T12:39:14;100862.53;;;26.34;64.47
28448;BME280;15675;52.870;-1.416;2023-06-10T12:41:40;100859.28;;;26.74;62.55